Aérodrome :
LOGIN :

S'inscrire | Disclaimer

   EN    FR    IT 

 










Légende :    VFR   VFR Marginal   IFR   IFR Intensif   IFR Très Intensif
Visi : 
Plafond : 
>= 8 km
>= 3000ft
5 à 8 km
1000 à 3000 ft
1500m à 5 km
500 à 1000 ft
800 à 1500m
200 à 500 ft
< 800m
< 200 ft
Symboles :   Orages  Brouillard  Fortes neiges  Fortes précipitations  Vent > 20 kt
SIGMETs :   Divers  Orages  Givrage  Turbulence  Onde Orograph.  Cendres Volcan.







- Altitude de l'aérodrome : 357 ft
- Code IATA : TUF
- Voir les cartes d'approche


LFOT - Tours

DERNIER METAR :
  • 220900Z AUTO 17006KT CAVOK 14/10 Q1024 NOSIG

METARs EXPIRÉS :
  • 220830Z AUTO 17004KT 130V200 CAVOK 13/10 Q1024 NOSIG
  • 220800Z AUTO 15005KT 120V180 9999 ///TCU 13/10 Q1023 BECMG NSC
  • 220730Z AUTO 17003KT CAVOK 12/10 Q1024 NOSIG
  • 220700Z AUTO VRB02KT CAVOK 10/09 Q1024 NOSIG
  • 220630Z AUTO 16003KT CAVOK 10/09 Q1024 NOSIG

TAF TAF LFOT
Valide du 22 à 06h jusqu'au 23 à 06h UTC


220500Z 2206/2306 18003KT CAVOK
BECMG 2222/2224 BKN008
TEMPO 2302/2306 22010G20KT 3000 -RADZ BKN003
Pas de NOTAMs connus pour ce terrain.
1 SIGMET publié pour la FIR Paris (LFFF) :
 
Givrage fort
LFFF SIGMET 1 VALID 220630/221000 LFPW
LFFF PARIS FIR/UIR SEV ICE FCST WI N4845 W00015 - N5000 W00015 - N5030 E00030 - N4930 E00115 - N4845 W00015 FL080/200 MOV E 35KT NC=



MET'MAP, la Météo Aéronautique d'un coup d'oeil ! - Copyright ORBIFLY Décembre 2007 - Disclaimer

ORBIFLY MET'MAP TEAM :

Programmation & Développement : Alexandra Zaïnal
Conception & Développement : Baudouin d'Aumeries
Co-Programmation & Développement : Marc-Olivier Méhu
Soutien technique & logistique : Manuel Goepfert

Contact : metmap@orbifly.com




SOURCES & CREDITS :

   NOAA